Time;durP1;ratioP1;P1;durP2;ratioP2;P2;SDS_P1;SDS_P2;PMS_P1;PMS_P2;Temp;Humidity;BMP_temperature;BMP_pressure;BME280_temperature;BME280_humidity;BME280_pressure;Samples;Min_cycle;Max_cycle;Signal;HPM_P1;HPM_P2
2021/11/20 00:01:16;;;;;;;15.43;8.43;;;7.40;99.90;;;7.75;72.21;98977.47;5058581;28;20045;-46
2021/11/20 00:03:46;;;;;;;14.65;7.65;;;7.50;99.90;;;7.77;72.15;98972.91;5060359;28;20041;-46
2021/11/20 00:06:31;;;;;;;14.43;8.20;;;7.50;99.90;;;7.76;72.16;98972.06;5060185;28;20061;-46
2021/11/20 00:09:01;;;;;;;14.35;8.82;;;7.50;99.90;;;7.75;72.09;98967.72;5059401;28;20059;-44
2021/11/20 00:11:34;;;;;;;13.53;8.37;;;7.50;99.90;;;7.77;72.18;98965.78;5058687;28;20051;-49
2021/11/20 00:14:04;;;;;;;14.77;8.07;;;7.50;99.90;;;7.78;72.04;98953.41;5059621;28;20047;-45
2021/11/20 00:16:34;;;;;;;15.37;9.77;;;7.50;99.90;;;7.76;72.24;98948.22;5059181;28;20052;-45
2021/11/20 00:19:03;;;;;;;12.53;8.93;;;7.50;99.90;;;7.74;71.98;98959.88;5059413;28;20362;-45
2021/11/20 00:21:42;;;;;;;15.83;9.67;;;7.50;99.90;;;7.72;72.44;98951.19;5057309;28;20052;-47
2021/11/20 00:24:38;;;;;;;17.43;9.37;;;7.50;99.90;;;7.67;71.92;98952.34;5059011;28;20043;-47
2021/11/20 00:27:16;;;;;;;20.30;11.33;;;7.40;99.90;;;7.66;72.08;98950.69;5054483;28;20068;-46
2021/11/20 00:29:57;;;;;;;16.43;9.47;;;7.30;99.90;;;7.65;72.10;98956.91;5073571;28;20067;-47
2021/11/20 00:32:32;;;;;;;13.83;8.63;;;7.40;99.90;;;7.68;72.45;98962.00;5074079;28;20052;-45
2021/11/20 00:35:09;;;;;;;15.17;9.67;;;7.40;99.90;;;7.69;72.28;98950.44;5058707;28;20052;-45
2021/11/20 00:37:38;;;;;;;;;;;7.40;99.90;;;7.64;72.12;98952.59;5059929;28;20498;-46
2021/11/20 00:40:12;;;;;;;16.07;10.00;;;7.40;99.90;;;7.66;72.46;98947.19;5058457;28;19925;-47
2021/11/20 00:42:41;;;;;;;14.73;9.43;;;7.40;99.90;;;7.66;72.15;98949.84;5059247;28;20053;-45
2021/11/20 00:45:12;;;;;;;13.20;8.00;;;7.40;99.90;;;7.69;72.32;98949.59;5057539;28;20049;-46
2021/11/20 00:47:41;;;;;;;14.10;8.33;;;7.40;99.90;;;7.71;72.29;98945.03;5056389;28;20060;-45
2021/11/20 00:50:14;;;;;;;13.80;7.77;;;7.50;99.90;;;7.76;72.09;98936.75;5057683;28;20060;-45
2021/11/20 00:52:45;;;;;;;14.30;8.20;;;7.50;99.90;;;7.76;72.15;98940.25;5057786;28;20055;-45
2021/11/20 00:55:23;;;;;;;12.53;7.73;;;7.50;99.90;;;7.73;71.97;98944.94;5057694;28;20053;-45
2021/11/20 00:57:56;;;;;;;11.37;6.47;;;7.50;99.90;;;7.71;71.95;98933.59;5051526;28;20052;-45
2021/11/20 01:00:31;;;;;;;11.67;7.80;;;7.40;99.90;;;7.71;72.26;98936.25;5055586;28;20052;-45
2021/11/20 01:03:01;;;;;;;10.07;7.03;;;7.50;99.90;;;7.65;72.19;98932.22;5058809;28;20068;-45
2021/11/20 01:05:30;;;;;;;10.77;6.63;;;7.40;99.90;;;7.59;72.54;98933.50;5057756;28;20051;-45
2021/11/20 01:07:58;;;;;;;8.13;5.00;;;7.30;99.90;;;7.60;72.37;98929.94;5056515;28;20313;-48
2021/11/20 01:10:33;;;;;;;11.30;6.10;;;7.30;99.90;;;7.63;71.98;98927.03;5072235;28;20060;-45
2021/11/20 01:13:03;;;;;;;7.47;5.17;;;7.40;99.90;;;7.62;72.70;98925.34;5057287;28;20063;-45
2021/11/20 01:15:50;;;;;;;11.00;5.57;;;7.40;99.90;;;7.62;71.99;98927.16;5057128;28;20055;-45
2021/11/20 01:18:23;;;;;;;8.10;5.77;;;7.40;99.90;;;7.59;72.01;98924.72;5073750;28;20067;-47
2021/11/20 01:21:00;;;;;;;7.27;4.47;;;7.40;99.90;;;7.58;72.40;98923.88;5054141;28;20072;-44
2021/11/20 01:23:32;;;;;;;9.33;5.20;;;7.30;99.90;;;7.61;72.26;98921.00;5072879;28;20330;-44
2021/11/20 01:26:09;;;;;;;6.90;4.60;;;7.40;99.90;;;7.63;72.39;98924.38;5057247;28;20275;-45
2021/11/20 01:28:49;;;;;;;6.30;4.30;;;7.40;99.90;;;7.65;72.05;98919.81;5057190;28;20373;-44
2021/11/20 01:31:28;;;;;;;7.50;4.57;;;7.50;99.90;;;7.65;72.18;98913.69;5073875;28;20348;-45
2021/11/20 01:33:57;;;;;;;7.97;4.50;;;7.50;99.90;;;7.64;72.16;98910.19;5058346;28;20048;-45
2021/11/20 01:36:30;;;;;;;6.60;4.20;;;7.50;99.90;;;7.65;71.83;98909.22;5055822;28;20055;-44
2021/11/20 01:39:05;;;;;;;5.18;4.05;;;7.40;99.90;;;7.64;72.13;98912.84;5055771;28;20063;-45
2021/11/20 01:41:40;;;;;;;8.07;4.87;;;7.40;99.90;;;7.62;71.77;98904.16;5040218;28;20049;-44
2021/11/20 01:44:43;;;;;;;7.93;4.63;;;7.40;99.90;;;7.60;71.84;98903.41;5056797;28;20052;-45
2021/11/20 01:47:54;;;;;;;6.97;5.10;;;7.30;99.90;;;7.56;71.52;98888.69;5057428;28;20075;-44
2021/11/20 01:50:40;;;;;;;9.07;5.10;;;7.30;99.90;;;7.58;71.83;98889.44;5073880;28;20048;-45
2021/11/20 01:53:15;;;;;;;8.32;5.22;;;7.40;99.90;;;7.59;72.00;98877.84;5057186;28;20068;-45
2021/11/20 01:56:22;;;;;;;8.93;5.55;;;7.30;99.90;;;7.59;71.78;98880.50;5056863;28;20060;-46
2021/11/20 01:59:36;;;;;;;7.67;4.77;;;7.40;99.90;;;7.61;71.53;98872.44;5012835;28;20242;-44
2021/11/20 02:02:52;;;;;;;7.40;4.80;;;7.40;99.90;;;7.61;71.68;98868.00;5057231;28;20051;-43
2021/11/20 02:06:14;;;;;;;8.80;5.27;;;7.40;99.90;;;7.63;71.79;98871.38;5056849;28;20056;-44
2021/11/20 02:09:27;;;;;;;7.90;5.03;;;7.40;99.90;;;7.64;71.51;98864.28;5051399;28;20053;-47
2021/11/20 02:12:24;;;;;;;8.23;5.03;;;7.40;99.90;;;7.66;71.66;98857.91;5043412;28;20048;-44
2021/11/20 02:14:56;;;;;;;7.10;4.90;;;7.40;99.90;;;7.68;71.77;98860.44;5056551;28;20067;-45
2021/11/20 02:17:50;;;;;;;8.50;5.10;;;7.50;99.90;;;7.68;71.57;98849.84;5057057;28;20059;-45
2021/11/20 02:20:57;;;;;;;9.37;5.20;;;7.50;99.90;;;7.66;71.77;98849.97;5073104;28;20047;-44
2021/11/20 02:23:38;;;;;;;9.17;5.43;;;7.40;99.90;;;7.62;71.85;98847.66;5056729;28;20363;-45
2021/11/20 02:26:07;;;;;;;8.50;6.33;;;7.40;99.90;;;7.61;71.59;98844.13;5056639;28;20059;-45
2021/11/20 02:29:04;;;;;;;9.03;6.10;;;7.30;99.90;;;7.62;71.49;98837.06;5055669;28;20045;-48
2021/11/20 02:32:00;;;;;;;8.88;5.60;;;7.40;99.90;;;7.60;71.70;98837.16;5073008;28;20235;-45
2021/11/20 02:34:46;;;;;;;9.50;6.17;;;7.40;99.90;;;7.59;71.71;98838.09;5057298;28;20055;-46
2021/11/20 02:37:17;;;;;;;10.83;5.60;;;7.30;99.90;;;7.58;71.47;98833.78;5059294;28;20914;-46
2021/11/20 02:39:47;;;;;;;11.27;6.63;;;7.30;99.90;;;7.59;71.68;98822.19;5059530;28;20057;-44
2021/11/20 02:42:21;;;;;;;8.67;5.57;;;7.40;99.90;;;7.61;71.90;98828.22;5076831;28;20053;-47
2021/11/20 02:45:28;;;;;;;9.27;5.60;;;7.40;99.90;;;7.61;71.28;98822.09;5060939;28;20059;-47
2021/11/20 02:47:59;;;;;;;10.03;5.63;;;7.40;99.90;;;7.56;71.46;98816.28;5059512;28;20059;-45
2021/11/20 02:50:37;;;;;;;8.03;5.60;;;7.30;99.90;;;7.52;71.46;98813.00;5076296;28;20049;-50
2021/11/20 02:53:13;;;;;;;7.07;4.80;;;7.30;99.90;;;7.49;71.70;98810.59;5059624;28;20048;-46
2021/11/20 02:55:50;;;;;;;9.27;5.77;;;7.30;99.90;;;7.45;71.66;98809.13;5076139;28;20056;-46
2021/11/20 02:58:24;;;;;;;8.77;5.77;;;7.20;99.90;;;7.43;71.28;98809.25;5055504;28;20049;-47
2021/11/20 03:01:05;;;;;;;8.57;5.33;;;7.10;99.90;;;7.44;71.71;98808.31;5056684;28;20049;-45
2021/11/20 03:03:34;;;;;;;8.93;5.93;;;7.20;99.90;;;7.48;71.61;98800.94;5059310;28;20255;-48
2021/11/20 03:06:03;;;;;;;9.10;6.27;;;7.20;99.90;;;7.48;71.36;98798.28;5076813;28;20131;-45
2021/11/20 03:08:32;;;;;;;8.60;6.30;;;7.30;99.90;;;7.45;71.32;98793.25;5075472;28;20135;-45
2021/11/20 03:11:13;;;;;;;8.00;5.20;;;7.20;99.90;;;7.45;71.44;98790.59;5059478;28;20066;-47
2021/11/20 03:13:52;;;;;;;10.07;6.03;;;7.20;99.90;;;7.49;71.38;98794.69;5074282;28;20049;-45
2021/11/20 03:16:41;;;;;;;9.67;5.43;;;7.30;99.90;;;7.51;71.59;98782.19;5059763;28;20057;-46
2021/11/20 03:19:12;;;;;;;9.60;5.90;;;7.30;99.90;;;7.51;71.54;98779.53;5058983;28;20049;-47
2021/11/20 03:21:46;;;;;;;10.83;6.33;;;7.30;99.90;;;7.53;71.31;98784.72;5059517;28;20047;-46
2021/11/20 03:24:18;;;;;;;8.47;5.03;;;7.30;99.90;;;7.53;71.69;98777.63;5059484;28;20049;-45
2021/11/20 03:26:47;;;;;;;10.63;6.30;;;7.30;99.90;;;7.56;71.16;98784.47;5059773;28;20132;-45
2021/11/20 03:29:16;;;;;;;7.57;5.30;;;7.30;99.90;;;7.56;71.18;98774.75;5075095;28;20049;-44
2021/11/20 03:31:44;;;;;;;8.00;5.63;;;7.30;99.90;;;7.57;71.44;98768.47;5059270;28;20053;-48
2021/11/20 03:34:13;;;;;;;10.30;6.50;;;7.30;99.90;;;7.56;71.32;98771.22;5060891;28;20059;-45
2021/11/20 03:36:43;;;;;;;8.70;5.53;;;7.30;99.90;;;7.55;71.61;98773.03;5060610;28;20051;-46
2021/11/20 03:39:20;;;;;;;10.33;5.90;;;7.30;99.90;;;7.56;71.09;98771.22;5043340;28;20056;-46
2021/11/20 03:41:51;;;;;;;10.50;6.43;;;7.30;99.90;;;7.54;71.44;98774.03;5043144;28;20044;-45
2021/11/20 03:44:21;;;;;;;12.37;6.73;;;7.30;99.90;;;7.59;71.37;98768.38;5075396;28;20335;-46
2021/11/20 03:46:54;;;;;;;8.88;5.60;;;7.40;99.90;;;7.61;71.37;98769.09;5075565;28;20332;-46
2021/11/20 03:49:27;;;;;;;9.18;6.10;;;7.40;99.90;;;7.66;71.14;98777.56;5074436;28;20056;-47
2021/11/20 03:51:56;;;;;;;10.23;6.83;;;7.50;99.90;;;7.68;71.42;98771.16;5060239;28;20049;-45
2021/11/20 03:54:26;;;;;;;9.20;6.27;;;7.50;99.90;;;7.71;71.42;98771.91;5075163;28;20059;-46
2021/11/20 03:56:55;;;;;;;11.93;6.50;;;7.50;99.90;;;7.73;71.04;98770.81;5058566;28;20045;-48
2021/11/20 03:59:24;;;;;;;10.33;7.00;;;7.50;99.90;;;7.73;71.01;98765.50;5039907;28;20071;-45
2021/11/20 04:01:53;;;;;;;7.97;5.30;;;7.50;99.90;;;7.77;70.96;98774.06;5055540;28;20051;-45
2021/11/20 04:04:23;;;;;;;9.73;6.63;;;7.50;99.90;;;7.80;70.74;98771.22;5058337;28;20057;-45
2021/11/20 04:06:52;;;;;;;11.43;7.13;;;7.60;99.90;;;7.81;70.68;98764.94;5075217;28;20049;-45
2021/11/20 04:09:22;;;;;;;11.10;6.57;;;7.60;99.90;;;7.84;70.94;98760.25;5074542;28;20053;-47
2021/11/20 04:11:56;;;;;;;9.47;6.20;;;7.60;99.90;;;7.86;70.62;98766.28;5075560;28;20048;-47
2021/11/20 04:14:26;;;;;;;9.83;6.23;;;7.70;99.90;;;7.87;70.78;98762.66;5074805;28;20041;-45
2021/11/20 04:16:56;;;;;;;11.33;6.93;;;7.70;99.90;;;7.89;70.93;98759.91;5042282;28;20239;-46
2021/11/20 04:19:25;;;;;;;11.20;6.67;;;7.70;99.90;;;7.89;70.77;98757.25;5057973;28;20044;-45
2021/11/20 04:21:54;;;;;;;9.83;6.13;;;7.60;99.90;;;7.90;70.69;98753.63;5059473;28;20041;-45
2021/11/20 04:24:25;;;;;;;10.53;6.40;;;7.60;99.90;;;7.87;70.70;98748.53;5058387;28;20041;-46
2021/11/20 04:27:08;;;;;;;9.53;5.73;;;7.60;99.90;;;7.81;70.50;98747.25;5060386;28;20051;-45
2021/11/20 04:30:00;;;;;;;9.20;5.63;;;7.50;99.90;;;7.79;70.54;98751.81;5054224;28;20263;-47
2021/11/20 04:32:30;;;;;;;9.20;6.60;;;7.50;99.90;;;7.77;70.54;98751.06;5058356;28;20055;-45
2021/11/20 04:34:59;;;;;;;10.57;6.80;;;7.50;99.90;;;7.76;70.55;98751.19;5058159;28;20056;-46
2021/11/20 04:37:29;;;;;;;10.10;6.90;;;7.50;99.90;;;7.74;70.54;98751.31;5054827;28;20352;-46
2021/11/20 04:40:02;;;;;;;9.97;5.67;;;7.50;99.90;;;7.70;70.52;98755.16;5056608;28;20078;-45
2021/11/20 04:42:31;;;;;;;9.47;5.90;;;7.40;99.90;;;7.71;70.81;98748.88;5074393;28;20239;-44
2021/11/20 04:45:00;;;;;;;9.00;5.57;;;7.50;99.90;;;7.74;70.75;98747.81;5057909;28;20045;-46
2021/11/20 04:47:29;;;;;;;13.00;6.93;;;7.50;99.90;;;7.71;70.53;98746.22;5074559;28;20251;-45
2021/11/20 04:49:57;;;;;;;8.23;5.80;;;7.40;99.80;;;7.71;70.31;98740.91;5056154;28;20389;-45
2021/11/20 04:52:27;;;;;;;8.90;6.10;;;7.50;99.90;;;7.72;70.60;98741.78;5057217;28;20061;-46
2021/11/20 04:54:55;;;;;;;10.00;5.77;;;7.50;99.90;;;7.74;70.73;98732.75;5073905;28;20052;-46
2021/11/20 04:57:35;;;;;;;10.50;6.50;;;7.50;99.90;;;7.77;70.80;98732.50;5073741;28;20044;-44
2021/11/20 05:00:10;;;;;;;11.47;6.43;;;7.60;99.90;;;7.81;70.55;98731.34;5054917;28;20052;-45
2021/11/20 05:02:46;;;;;;;10.63;6.40;;;7.60;99.90;;;7.84;70.64;98720.47;5070406;28;20053;-46
2021/11/20 05:05:22;;;;;;;12.70;6.47;;;7.60;99.90;;;7.83;70.70;98718.81;5057317;28;20052;-45
2021/11/20 05:07:51;;;;;;;10.60;6.63;;;7.60;99.60;;;7.79;70.44;98708.53;5074114;28;20059;-44
2021/11/20 05:10:20;;;;;;;8.73;6.53;;;7.50;99.50;;;7.72;70.22;98709.97;5055432;28;20281;-46
2021/11/20 05:37:07;;;;;;;13.10;7.60;;;7.40;99.90;;;7.61;70.50;98686.94;5062875;28;20035;-46
2021/11/20 05:39:35;;;;;;;11.63;7.50;;;7.30;99.90;;;7.64;70.25;98694.66;5055887;28;20399;-47
2021/11/20 05:42:07;;;;;;;12.07;7.10;;;7.40;99.90;;;7.67;70.65;98695.25;5073158;28;20049;-45
2021/11/20 05:44:35;;;;;;;12.37;7.43;;;7.50;99.90;;;7.70;70.61;98691.53;5058368;28;20147;-45
2021/11/20 05:47:08;;;;;;;11.30;7.00;;;7.50;99.90;;;7.74;70.30;98694.81;5073827;28;20051;-44
2021/11/20 05:49:41;;;;;;;12.23;7.03;;;7.50;99.90;;;7.74;70.45;98687.69;5055769;28;20059;-44
2021/11/20 05:52:15;;;;;;;12.17;8.03;;;7.50;99.80;;;7.77;70.58;98686.59;5073418;28;20061;-44
2021/11/20 05:54:45;;;;;;;12.87;7.60;;;7.50;99.90;;;7.79;70.05;98688.19;5072964;28;20049;-45
2021/11/20 05:57:24;;;;;;;13.70;8.27;;;7.60;99.70;;;7.81;70.32;98682.75;5056643;28;20079;-45
2021/11/20 06:00:14;;;;;;;10.83;7.07;;;7.60;99.50;;;7.81;70.21;98685.41;5072963;28;20047;-45
2021/11/20 06:02:54;;;;;;;11.00;7.90;;;7.50;99.30;;;7.80;70.23;98681.91;5053766;28;20266;-48
2021/11/20 06:05:36;;;;;;;15.70;8.45;;;7.50;99.60;;;7.76;70.21;98685.75;5072351;28;20049;-48
2021/11/20 06:08:06;;;;;;;12.20;8.20;;;7.40;99.30;;;7.79;70.10;98682.88;5057095;28;20045;-44
2021/11/20 06:10:37;;;;;;;13.93;8.40;;;7.50;99.80;;;7.79;69.88;98674.94;5058459;28;20044;-47
2021/11/20 06:13:07;;;;;;;11.70;8.03;;;7.50;99.50;;;7.77;70.19;98679.47;5077755;28;20243;-46
2021/11/20 06:15:44;;;;;;;15.07;9.20;;;7.50;99.40;;;7.79;70.14;98682.03;5076970;28;20049;-47
2021/11/20 06:18:15;;;;;;;13.43;7.73;;;7.50;99.20;;;7.78;69.78;98672.41;5077360;28;20051;-45
2021/11/20 06:20:47;;;;;;;13.67;8.93;;;7.50;99.20;;;7.76;69.65;98677.81;5075924;28;20053;-46
2021/11/20 06:23:27;;;;;;;14.00;8.17;;;7.50;99.10;;;7.75;69.91;98681.41;5042835;28;20076;-45
2021/11/20 06:26:01;;;;;;;14.17;8.83;;;7.40;99.00;;;7.74;69.70;98674.44;5061690;28;20049;-48
2021/11/20 06:28:29;;;;;;;14.07;8.67;;;7.50;99.10;;;7.73;69.84;98678.03;5076851;28;20048;-47
2021/11/20 06:31:01;;;;;;;13.30;7.90;;;7.40;98.80;;;7.72;69.61;98678.19;5076302;28;20251;-46
2021/11/20 06:33:33;;;;;;;14.73;8.40;;;7.40;98.90;;;7.73;69.71;98675.38;5060522;28;20048;-49
2021/11/20 06:36:22;;;;;;;13.93;8.23;;;7.40;98.80;;;7.68;69.53;98672.25;5059833;28;20055;-46
2021/11/20 06:38:56;;;;;;;14.97;8.00;;;7.40;98.60;;;7.67;69.57;98678.50;5076050;28;20053;-44
2021/11/20 06:41:25;;;;;;;13.10;8.43;;;7.30;98.90;;;7.65;69.31;98681.28;5059833;28;20057;-46
2021/11/20 06:43:53;;;;;;;15.63;8.67;;;7.30;98.90;;;7.62;69.22;98678.88;5061500;28;20083;-46
2021/11/20 06:46:22;;;;;;;14.80;9.23;;;7.30;99.00;;;7.61;69.48;98677.16;5060092;28;20374;-45
2021/11/20 06:48:52;;;;;;;14.43;9.30;;;7.30;99.10;;;7.64;69.26;98673.47;5059832;28;20051;-46
2021/11/20 06:51:26;;;;;;;14.50;9.20;;;7.30;98.90;;;7.63;69.37;98675.25;5044320;28;20064;-45
2021/11/20 06:54:13;;;;;;;15.70;9.17;;;7.30;98.70;;;7.60;69.20;98670.19;5062329;28;20055;-44
2021/11/20 06:57:07;;;;;;;17.37;8.90;;;7.30;98.80;;;7.60;69.50;98677.28;5061040;28;20043;-45
2021/11/20 07:03:28;;;;;;;15.43;9.50;;;7.20;98.50;;;7.55;69.40;98685.59;5041595;28;20079;-48
2021/11/20 07:06:20;;;;;;;16.65;9.63;;;7.20;98.70;;;7.52;69.24;98685.81;5060562;28;20041;-43
2021/11/20 07:08:53;;;;;;;18.30;10.83;;;7.20;99.00;;;7.51;69.38;98681.50;5060812;28;20263;-47
2021/11/20 07:11:22;;;;;;;18.13;10.77;;;7.10;99.00;;;7.50;69.36;98687.72;5059957;28;20072;-48
2021/11/20 07:13:54;;;;;;;17.07;10.13;;;7.10;99.20;;;7.52;69.49;98687.63;5061077;28;20063;-49
2021/11/20 07:16:26;;;;;;;16.23;9.53;;;7.20;99.00;;;7.51;69.74;98683.31;5042755;28;20063;-45
2021/11/20 07:18:59;;;;;;;17.20;9.43;;;7.20;99.10;;;7.52;69.60;98685.81;5075741;28;20335;-46
2021/11/20 07:22:05;;;;;;;15.40;9.23;;;7.20;99.10;;;7.54;69.71;98693.66;5077808;28;20051;-46
2021/11/20 07:24:52;;;;;;;15.37;8.67;;;7.20;99.00;;;7.55;69.49;98688.25;5078339;28;20045;-49
2021/11/20 07:27:20;;;;;;;15.90;9.10;;;7.30;98.80;;;7.53;69.33;98686.69;5058545;28;20379;-47
2021/11/20 07:29:50;;;;;;;13.57;9.40;;;7.20;99.20;;;7.54;69.25;98683.91;5075188;28;20051;-47
2021/11/20 07:32:27;;;;;;;15.33;9.43;;;7.30;99.10;;;7.55;69.30;98682.94;5058717;28;20067;-44
2021/11/20 07:34:56;;;;;;;16.03;10.07;;;7.30;99.00;;;7.58;69.80;98693.31;5075637;28;20070;-45
2021/11/20 07:37:24;;;;;;;16.00;8.73;;;7.30;99.00;;;7.55;69.28;98684.75;5060507;28;20044;-46
2021/11/20 07:39:53;;;;;;;12.60;8.10;;;7.40;99.00;;;7.60;69.78;98678.16;5055207;28;20049;-47
2021/11/20 07:42:22;;;;;;;17.13;8.70;;;7.40;99.00;;;7.65;69.45;98680.44;5075837;28;20049;-46
2021/11/20 07:45:11;;;;;;;15.70;9.20;;;7.40;98.90;;;7.68;69.75;98681.03;5060236;28;20235;-45
2021/11/20 07:47:54;;;;;;;15.55;9.15;;;7.50;98.70;;;7.71;69.61;98673.81;5075265;28;20059;-47
2021/11/20 07:50:22;;;;;;;13.93;8.93;;;7.50;98.90;;;7.72;69.62;98675.53;5058451;28;20366;-46
2021/11/20 07:52:50;;;;;;;14.87;9.00;;;7.40;98.80;;;7.73;69.67;98674.53;5058636;28;20052;-48
2021/11/20 07:55:18;;;;;;;15.27;8.27;;;7.50;99.00;;;7.77;69.51;98679.47;5074260;28;20335;-46
2021/11/20 07:57:58;;;;;;;12.43;7.90;;;7.50;99.20;;;7.82;69.50;98669.38;5058955;28;20057;-46
2021/11/20 08:00:28;;;;;;;13.93;9.23;;;7.60;99.00;;;7.84;69.66;98666.63;5058991;28;20071;-48
2021/11/20 08:03:08;;;;;;;12.57;8.27;;;7.60;98.80;;;7.87;69.69;98663.72;5072925;28;20059;-48
2021/11/20 08:05:55;;;;;;;17.27;9.20;;;7.70;99.00;;;7.91;69.83;98661.66;5053438;28;20051;-45
2021/11/20 08:08:42;;;;;;;14.77;8.63;;;7.70;99.00;;;7.92;69.62;98658.06;5062849;28;20055;-45
2021/11/20 08:11:26;;;;;;;13.70;8.57;;;7.70;98.80;;;7.96;69.76;98648.91;5074700;28;20045;-47
2021/11/20 08:13:55;;;;;;;14.20;8.47;;;7.80;99.00;;;8.01;69.45;98650.22;5072746;28;20048;-46
2021/11/20 08:16:46;;;;;;;12.83;7.90;;;7.80;98.80;;;8.06;69.69;98652.50;5031240;28;20056;-48
2021/11/20 08:19:17;;;;;;;14.80;9.10;;;7.90;98.30;;;8.08;69.31;98650.56;5059098;28;20057;-46
2021/11/20 08:21:57;;;;;;;14.20;8.20;;;7.90;98.30;;;8.12;69.54;98645.88;5061004;28;20033;-46
2021/11/20 08:24:29;;;;;;;13.20;7.67;;;8.00;98.20;;;8.16;69.53;98642.00;5057821;28;20063;-46
2021/11/20 08:27:00;;;;;;;15.50;9.03;;;8.10;98.30;;;8.21;69.51;98640.69;5057481;28;20248;-47
2021/11/20 08:29:37;;;;;;;11.73;7.73;;;8.10;98.00;;;8.24;69.48;98635.16;5057449;28;20256;-45
2021/11/20 08:32:10;;;;;;;14.47;8.83;;;8.10;97.90;;;8.26;69.27;98630.56;5058172;28;20111;-44
2021/11/20 08:34:58;;;;;;;12.43;7.87;;;8.10;97.70;;;8.27;69.45;98624.28;5074284;28;20057;-44
2021/11/20 08:37:34;;;;;;;12.47;7.83;;;8.20;97.60;;;8.32;69.30;98620.41;5074145;28;20236;-46
2021/11/20 08:40:39;;;;;;;13.27;7.40;;;8.20;97.40;;;8.35;69.20;98625.47;5073232;28;20377;-46
2021/11/20 08:43:08;;;;;;;12.47;7.37;;;8.20;97.40;;;8.35;69.20;98621.00;5041315;28;20347;-47
2021/11/20 08:45:43;;;;;;;12.90;8.67;;;8.20;97.40;;;8.41;69.22;98619.69;5052305;28;20360;-46
2021/11/20 08:48:16;;;;;;;13.07;7.63;;;8.30;97.40;;;8.45;69.21;98619.34;5046824;28;20060;-46
2021/11/20 08:50:58;;;;;;;12.10;7.93;;;8.40;97.30;;;8.48;69.27;98618.25;5058610;28;20066;-45
2021/11/20 08:53:27;;;;;;;16.17;9.20;;;8.40;96.70;;;8.51;69.13;98609.19;5055787;28;20048;-47
2021/11/20 08:55:56;;;;;;;13.63;8.10;;;8.40;97.00;;;8.53;69.07;98612.56;5056873;28;20050;-45
2021/11/20 08:58:35;;;;;;;13.27;7.97;;;8.40;97.10;;;8.56;69.19;98614.97;5069355;28;20267;-46
2021/11/20 09:01:15;;;;;;;12.53;7.53;;;8.40;97.10;;;8.56;69.02;98609.66;5033712;28;20056;-50
2021/11/20 09:04:30;;;;;;;12.97;8.83;;;8.40;97.30;;;8.57;68.97;98606.03;5054199;28;20047;-48
2021/11/20 09:07:17;;;;;;;11.97;7.70;;;8.40;97.60;;;8.61;69.13;98613.63;5054770;28;20051;-46
2021/11/20 09:10:19;;;;;;;13.37;8.87;;;8.50;97.50;;;8.64;68.86;98604.56;5055452;28;20049;-47
2021/11/20 09:12:54;;;;;;;17.60;8.87;;;8.50;97.40;;;8.66;69.30;98606.13;5055093;28;20052;-49
2021/11/20 09:15:48;;;;;;;12.93;7.63;;;8.50;97.40;;;8.67;69.06;98604.34;5057861;28;20052;-47
2021/11/20 09:18:38;;;;;;;12.07;6.93;;;8.50;97.10;;;8.66;69.16;98606.13;5063651;28;20406;-48
2021/11/20 09:21:10;;;;;;;12.23;8.37;;;8.50;97.70;;;8.66;69.14;98606.13;5053840;28;20047;-50
2021/11/20 09:24:01;;;;;;;13.38;7.15;;;8.50;97.80;;;8.67;69.04;98613.13;5053961;28;20047;-46
2021/11/20 09:26:52;;;;;;;13.77;8.20;;;8.50;97.70;;;8.69;69.02;98610.34;5048046;28;20078;-47
2021/11/20 09:29:25;;;;;;;15.40;7.67;;;8.60;97.80;;;8.71;68.84;98603.09;5052213;28;20408;-45
2021/11/20 09:31:55;;;;;;;12.80;8.07;;;8.60;97.60;;;8.74;69.12;98608.16;5049956;28;20061;-47
2021/11/20 09:34:26;;;;;;;9.77;7.72;;;8.60;97.70;;;8.75;68.95;98601.06;5053371;28;20342;-48
2021/11/20 09:36:59;;;;;;;12.47;7.90;;;8.60;97.50;;;8.77;68.84;98601.78;5038406;28;20041;-46
2021/11/20 09:39:51;;;;;;;;;;;8.70;97.30;;;8.75;68.79;98603.72;5037204;28;20366;-48
2021/11/20 09:42:31;;;;;;;8.63;6.23;;;8.60;95.50;;;8.80;68.92;98596.19;5037832;28;19924;-46
2021/11/20 09:45:16;;;;;;;11.93;7.37;;;8.60;97.00;;;8.81;68.69;98593.41;5041623;28;20087;-48
2021/11/20 09:48:28;;;;;;;12.33;7.80;;;8.70;97.20;;;8.73;68.21;98589.72;5059404;28;20063;-49
2021/11/20 09:51:27;;;;;;;12.27;6.83;;;8.70;97.20;;;8.78;68.84;98584.84;5040132;28;20040;-46
2021/11/20 09:54:15;;;;;;;13.05;7.60;;;8.70;97.10;;;8.80;68.89;98580.25;5069671;28;20047;-45
2021/11/20 09:56:53;;;;;;;10.52;6.78;;;8.70;97.30;;;8.80;68.82;98573.16;5058977;28;20049;-46
2021/11/20 09:59:54;;;;;;;10.27;6.47;;;8.70;97.40;;;8.81;68.64;98571.34;5056942;28;20075;-45
2021/11/20 10:02:53;;;;;;;9.40;6.03;;;8.70;97.40;;;8.85;68.74;98570.09;5061203;28;20044;-48
2021/11/20 10:05:28;;;;;;;9.63;5.97;;;8.80;97.00;;;8.84;68.73;98571.06;5059830;28;20369;-43
2021/11/20 10:08:25;;;;;;;9.00;5.70;;;8.70;97.00;;;8.84;68.60;98563.97;5058101;28;20343;-46
2021/11/20 10:11:08;;;;;;;10.37;4.80;;;8.70;96.40;;;8.85;68.64;98560.31;5058099;28;20049;-46
2021/11/20 10:14:03;;;;;;;7.87;4.93;;;8.70;96.90;;;8.87;68.71;98555.72;5060779;28;20045;-46
2021/11/20 10:16:48;;;;;;;5.60;3.83;;;8.80;96.90;;;8.93;68.72;98559.69;5056811;28;20049;-46
2021/11/20 10:19:42;;;;;;;5.73;3.57;;;8.80;96.20;;;8.95;68.53;98559.56;5058942;28;20083;-47
2021/11/20 10:22:30;;;;;;;9.18;4.10;;;8.90;96.30;;;8.96;68.78;98554.13;5057271;28;20059;-46
2021/11/20 10:25:39;;;;;;;5.70;4.03;;;8.90;96.70;;;9.01;68.45;98557.22;5044525;28;20049;-47
2021/11/20 10:28:50;;;;;;;8.17;3.53;;;8.90;96.40;;;9.01;68.18;98553.72;5046270;28;20051;-48
2021/11/20 10:31:27;;;;;;;4.80;3.23;;;8.90;95.60;;;9.03;68.29;98551.78;5058953;28;20243;-46
2021/11/20 10:34:40;;;;;;;5.00;3.63;;;8.90;96.10;;;9.00;67.93;98547.56;5061440;28;20067;-45
2021/11/20 10:37:31;;;;;;;4.53;3.33;;;8.90;95.00;;;8.98;68.11;98546.88;5058126;28;20049;-46
2021/11/20 10:40:50;;;;;;;5.50;3.30;;;8.80;95.70;;;8.97;68.18;98542.50;5053840;28;20067;-46
2021/11/20 10:43:46;;;;;;;6.17;3.23;;;8.80;95.90;;;9.01;68.31;98533.31;5036375;28;20071;-46
2021/11/20 10:46:23;;;;;;;5.60;3.77;;;8.90;95.80;;;9.01;67.91;98530.66;5056258;28;20205;-47
2021/11/20 10:49:06;;;;;;;6.50;3.97;;;8.90;96.10;;;9.04;68.00;98530.41;5059514;28;20048;-48
2021/11/20 10:51:51;;;;;;;5.87;3.63;;;8.90;95.60;;;9.03;67.84;98538.50;5043675;28;20045;-47
2021/11/20 10:54:59;;;;;;;5.57;3.53;;;8.90;95.10;;;9.02;67.84;98536.84;5029620;28;20051;-45
2021/11/20 10:58:22;;;;;;;6.20;3.67;;;8.90;95.10;;;9.03;67.86;98526.09;5027480;28;20061;-46
2021/11/20 11:01:14;;;;;;;6.03;4.17;;;8.90;94.80;;;9.04;67.86;98513.63;5029854;28;20389;-47
2021/11/20 11:04:16;;;;;;;5.27;3.80;;;8.90;95.60;;;9.06;67.70;98512.53;5024034;28;20065;-50
2021/11/20 11:07:10;;;;;;;6.53;4.00;;;9.00;94.80;;;9.06;67.94;98509.88;5027318;28;20076;-44
2021/11/20 11:09:49;;;;;;;6.97;3.97;;;8.90;95.10;;;9.09;67.66;98494.63;5027933;28;20051;-45
2021/11/20 11:12:40;;;;;;;6.83;3.83;;;9.00;95.20;;;9.10;67.73;98491.84;5025810;28;20041;-44
2021/11/20 11:15:17;;;;;;;7.90;4.10;;;9.00;95.10;;;9.12;67.84;98491.72;5024710;28;20080;-46
2021/11/20 11:18:30;;;;;;;8.43;5.03;;;9.00;95.20;;;9.11;67.39;98484.72;5027541;28;20068;-45
2021/11/20 11:21:55;;;;;;;6.10;3.90;;;9.00;94.30;;;9.14;67.41;98477.34;4985352;28;20407;-44
2021/11/20 11:24:41;;;;;;;7.10;4.70;;;9.10;94.70;;;9.18;67.69;98467.28;5024505;28;20483;-46
2021/11/20 11:27:25;;;;;;;5.47;3.80;;;9.10;94.70;;;9.16;67.38;98456.78;5026113;28;20049;-47
2021/11/20 11:30:09;;;;;;;6.82;4.13;;;9.10;94.20;;;9.14;67.27;98458.75;5027167;28;20359;-46
2021/11/20 11:32:44;;;;;;;6.23;4.83;;;9.00;93.90;;;9.13;67.47;98451.75;5025552;28;20374;-49
2021/11/20 11:35:25;;;;;;;8.63;4.70;;;9.00;94.40;;;9.15;67.46;98456.91;5026360;28;20071;-46
2021/11/20 11:38:27;;;;;;;7.07;4.43;;;9.00;94.60;;;9.16;67.54;98445.34;5025864;28;20243;-48
2021/11/20 11:41:11;;;;;;;9.40;5.10;;;9.10;94.40;;;9.19;67.27;98435.28;5023160;28;20045;-44
2021/11/20 11:43:47;;;;;;;;;;;9.20;94.60;;;9.19;67.38;98435.28;5017410;28;20290;-49
2021/11/20 11:46:29;;;;;;;8.07;4.70;;;9.20;93.00;;;9.22;67.43;98424.38;5015014;28;20150;-46
2021/11/20 11:49:42;;;;;;;7.37;4.30;;;9.20;94.30;;;9.25;67.12;98428.59;5017544;28;20049;-47
2021/11/20 11:52:27;;;;;;;5.93;4.63;;;9.20;93.80;;;9.22;66.82;98421.72;5024982;28;20053;-46